createdAt,value
2023-04-24T00:05:04.137Z,16.29
2023-04-24T00:10:08.591Z,16.45
2023-04-24T00:15:13.099Z,16.37
2023-04-24T00:20:15.873Z,16.40
2023-04-24T00:25:18.766Z,16.43
2023-04-24T00:30:22.940Z,16.56
2023-04-24T00:35:25.857Z,16.42
2023-04-24T00:40:29.217Z,16.64
2023-04-24T00:45:33.618Z,16.44
2023-04-24T00:50:37.887Z,16.22
2023-04-24T00:55:41.187Z,15.93
2023-04-24T01:00:47.198Z,15.94
2023-04-24T01:05:51.505Z,15.80
2023-04-24T01:10:54.692Z,15.74
2023-04-24T01:15:59.456Z,15.63
2023-04-24T01:21:06.471Z,15.57
2023-04-24T01:26:10.701Z,15.78
2023-04-24T01:31:13.624Z,15.82
2023-04-24T01:36:17.467Z,15.80
2023-04-24T01:41:22.280Z,15.55
2023-04-24T01:46:25.070Z,15.82
2023-04-24T01:51:28.016Z,15.67
2023-04-24T01:56:32.618Z,15.53
2023-04-24T02:01:37.828Z,15.54
2023-04-24T02:06:40.919Z,15.25
2023-04-24T02:11:45.038Z,15.30
2023-04-24T02:16:47.953Z,14.93
2023-04-24T02:21:50.816Z,14.94
2023-04-24T02:26:54.916Z,14.81
2023-04-24T02:31:57.749Z,14.79
2023-04-24T02:37:00.513Z,14.94
2023-04-24T02:42:04.687Z,14.88
2023-04-24T02:47:08.532Z,14.67
2023-04-24T02:52:11.649Z,14.73
2023-04-24T02:57:16.166Z,14.63
2023-04-24T03:02:19.558Z,14.71
2023-04-24T03:07:23.155Z,14.62
2023-04-24T03:12:27.493Z,14.38
2023-04-24T03:17:30.284Z,14.29
2023-04-24T03:22:33.571Z,14.42
2023-04-24T03:27:38.659Z,14.16
2023-04-24T03:32:48.577Z,14.04
2023-04-24T03:37:56.606Z,14.23
2023-04-24T03:43:20.749Z,14.09
2023-04-24T03:48:23.934Z,13.85
2023-04-24T03:53:27.520Z,13.52
2023-04-24T03:58:32.495Z,13.87
2023-04-24T04:03:36.644Z,13.58
2023-04-24T04:08:39.581Z,13.83
2023-04-24T04:13:43.965Z,14.24
2023-04-24T04:18:47.068Z,13.96
2023-04-24T04:23:50.117Z,14.16
2023-04-24T04:29:04.217Z,14.02
2023-04-24T04:34:08.566Z,14.29
2023-04-24T04:39:12.006Z,14.13
2023-04-24T04:44:42.024Z,14.07
2023-04-24T04:49:49.107Z,15.15
2023-04-24T04:54:55.797Z,15.00
2023-04-24T05:00:08.480Z,15.12
2023-04-24T05:05:21.091Z,14.79
2023-04-24T05:10:24.952Z,14.64
2023-04-24T05:15:32.357Z,14.67
2023-04-24T05:20:37.059Z,14.91
2023-04-24T05:25:41.394Z,15.19
2023-04-24T05:30:49.280Z,14.96
2023-04-24T05:35:53.383Z,15.05
2023-04-24T05:40:57.405Z,15.35
2023-04-24T05:46:01.926Z,15.51
2023-04-24T05:51:05.067Z,15.55
2023-04-24T05:56:08.595Z,15.14
2023-04-24T06:01:13.815Z,16.79
2023-04-24T06:06:17.058Z,19.60
2023-04-24T06:11:20.135Z,19.27
2023-04-24T06:16:25.116Z,20.32
2023-04-24T06:21:35.660Z,20.35
2023-04-24T06:26:38.786Z,21.27
2023-04-24T06:31:45.580Z,22.03
2023-04-24T06:36:49.366Z,22.07
2023-04-24T06:41:52.197Z,23.71
2023-04-24T06:46:58.997Z,26.32
2023-04-24T06:52:01.790Z,24.97
2023-04-24T06:57:04.781Z,25.00
2023-04-24T07:02:09.016Z,26.91
2023-04-24T07:07:14.150Z,26.17
2023-04-24T07:12:18.306Z,24.00
2023-04-24T07:17:22.614Z,25.62
2023-04-24T07:22:25.699Z,24.63
2023-04-24T07:27:28.672Z,22.13
2023-04-24T07:32:32.806Z,22.16
2023-04-24T07:37:35.716Z,22.49
2023-04-24T07:42:39.247Z,24.42
2023-04-24T07:47:44.874Z,23.75
2023-04-24T07:52:47.825Z,24.08
2023-04-24T07:57:51.190Z,21.69
2023-04-24T08:02:55.832Z,18.33
2023-04-24T08:07:58.933Z,17.95
2023-04-24T08:13:01.816Z,18.91
2023-04-24T08:18:06.121Z,18.45
2023-04-24T08:23:08.933Z,18.91
2023-04-24T08:28:11.835Z,18.74
2023-04-24T08:33:16.315Z,19.73
2023-04-24T08:38:19.497Z,19.21
2023-04-24T08:43:25.086Z,18.53
2023-04-24T08:48:32.058Z,18.31
2023-04-24T08:53:35.822Z,18.31
2023-04-24T08:58:38.979Z,19.28
2023-04-24T09:03:43.254Z,19.72
2023-04-24T09:08:47.603Z,20.85
2023-04-24T09:13:50.714Z,19.53
2023-04-24T09:18:55.848Z,19.43
2023-04-24T09:24:03.854Z,18.63
2023-04-24T09:29:06.809Z,18.91
2023-04-24T09:34:11.500Z,18.44
2023-04-24T09:39:18.712Z,18.98
2023-04-24T09:44:23.121Z,17.13
2023-04-24T09:49:28.364Z,17.89
2023-04-24T09:54:31.778Z,17.62
2023-04-24T09:59:36.791Z,16.85
2023-04-24T10:04:42.063Z,16.56
2023-04-24T10:09:45.259Z,17.58
2023-04-24T10:14:48.721Z,17.76
2023-04-24T10:19:53.958Z,17.80
2023-04-24T10:24:57.462Z,17.87
2023-04-24T10:30:01.975Z,17.77
2023-04-24T10:35:08.683Z,17.21
2023-04-24T10:40:13.015Z,16.95
2023-04-24T10:45:20.106Z,16.94
2023-04-24T10:50:24.425Z,18.29
2023-04-24T10:55:48.032Z,17.75
2023-04-24T11:00:59.223Z,17.80
2023-04-24T11:06:05.348Z,18.42
2023-04-24T11:11:12.962Z,18.29
2023-04-24T11:16:16.995Z,18.75
2023-04-24T11:21:21.396Z,19.15
2023-04-24T11:26:25.763Z,19.09
2023-04-24T11:31:39.528Z,18.70
2023-04-24T11:36:45.110Z,19.00
2023-04-24T11:41:48.982Z,18.18
2023-04-24T11:46:51.731Z,18.63
2023-04-24T11:52:00.956Z,18.13
2023-04-24T11:57:07.487Z,17.88
2023-04-24T12:02:10.440Z,18.36
2023-04-24T12:07:14.827Z,18.02
2023-04-24T12:12:19.813Z,17.61
2023-04-24T12:17:29.146Z,18.23
2023-04-24T12:22:47.776Z,17.55
2023-04-24T12:27:55.953Z,17.38
2023-04-24T12:32:59.512Z,17.25
2023-04-24T12:38:09.582Z,17.04
2023-04-24T12:43:17.393Z,16.32
2023-04-24T12:48:21.284Z,16.62
2023-04-24T12:53:27.613Z,16.74
2023-04-24T12:58:30.573Z,16.49
2023-04-24T13:03:33.614Z,16.43
2023-04-24T13:08:37.954Z,16.01
2023-04-24T13:13:41.334Z,16.03
2023-04-24T13:18:44.704Z,16.28
2023-04-24T13:23:49.255Z,16.55
2023-04-24T13:28:52.190Z,16.42
2023-04-24T13:33:54.905Z,16.08
2023-04-24T13:38:59.220Z,16.23
2023-04-24T13:44:02.280Z,16.17
2023-04-24T13:49:05.521Z,16.59
2023-04-24T13:54:09.999Z,17.17
2023-04-24T13:59:14.863Z,16.69
2023-04-24T14:04:21.000Z,17.42
2023-04-24T14:09:25.275Z,17.07
2023-04-24T14:14:27.987Z,17.26
2023-04-24T14:19:30.765Z,16.95
2023-04-24T14:24:34.888Z,16.23
2023-04-24T14:29:37.625Z,16.13
2023-04-24T14:34:40.543Z,15.34
2023-04-24T14:39:49.976Z,15.15
2023-04-24T14:44:59.447Z,14.48
2023-04-24T14:50:02.250Z,14.36
2023-04-24T14:55:07.890Z,15.08
2023-04-24T15:00:12.374Z,14.52
2023-04-24T15:05:15.459Z,14.51
2023-04-24T15:10:20.040Z,14.32
2023-04-24T15:15:22.813Z,14.58
2023-04-24T15:20:25.578Z,14.29
2023-04-24T15:25:29.870Z,13.90
2023-04-24T15:30:33.057Z,13.57
2023-04-24T15:35:36.442Z,13.06
2023-04-24T15:40:40.627Z,12.90
2023-04-24T15:45:43.789Z,12.92
2023-04-24T15:50:46.605Z,12.61
2023-04-24T15:55:52.571Z,12.12
2023-04-24T16:00:55.691Z,11.77
2023-04-24T16:05:58.417Z,11.71
2023-04-24T16:11:02.726Z,11.88
2023-04-24T16:16:06.528Z,11.57
2023-04-24T16:21:09.948Z,11.43
2023-04-24T16:26:14.447Z,11.58
2023-04-24T16:31:17.260Z,11.00
2023-04-24T16:36:20.611Z,11.36
2023-04-24T16:41:24.944Z,11.38
2023-04-24T16:46:28.117Z,11.01
2023-04-24T16:51:31.789Z,11.22
2023-04-24T16:56:36.005Z,10.93
2023-04-24T17:01:38.881Z,10.92
2023-04-24T17:06:41.675Z,11.01
2023-04-24T17:11:45.754Z,11.29
2023-04-24T17:16:48.586Z,11.73
2023-04-24T17:21:52.353Z,11.69
2023-04-24T17:27:01.642Z,12.10
2023-04-24T17:32:11.327Z,11.71
2023-04-24T17:37:14.161Z,12.00
2023-04-24T17:42:18.413Z,12.22
2023-04-24T17:47:22.384Z,11.84
2023-04-24T17:52:25.179Z,12.00
2023-04-24T17:57:29.338Z,12.12
2023-04-24T18:02:32.271Z,12.36
2023-04-24T18:07:35.257Z,12.23
2023-04-24T18:12:39.415Z,11.62
2023-04-24T18:17:42.284Z,12.07
2023-04-24T18:22:45.438Z,12.22
2023-04-24T18:27:49.593Z,11.72
2023-04-24T18:32:54.069Z,12.46
2023-04-24T18:37:57.000Z,11.88
2023-04-24T18:43:01.324Z,11.70
2023-04-24T18:48:04.328Z,12.01
2023-04-24T18:53:07.398Z,11.81
2023-04-24T18:58:11.838Z,11.78
2023-04-24T19:03:14.853Z,11.69
2023-04-24T19:08:17.885Z,11.91
2023-04-24T19:13:22.154Z,11.84
2023-04-24T19:18:26.244Z,11.62
2023-04-24T19:23:29.168Z,11.78
2023-04-24T19:28:33.602Z,12.36
2023-04-24T19:33:36.356Z,11.92
2023-04-24T19:38:39.450Z,11.49
2023-04-24T19:43:43.582Z,11.90
2023-04-24T19:48:46.731Z,11.76
2023-04-24T19:53:50.425Z,11.94
2023-04-24T19:58:54.517Z,11.79
2023-04-24T20:03:57.617Z,11.54
2023-04-24T20:09:00.673Z,11.55
2023-04-24T20:14:04.802Z,11.92
2023-04-24T20:19:08.059Z,12.20
2023-04-24T20:24:11.020Z,11.96
2023-04-24T20:29:15.189Z,12.02
2023-04-24T20:34:18.030Z,11.78
2023-04-24T20:39:20.923Z,11.66
2023-04-24T20:44:25.198Z,11.30
2023-04-24T20:49:28.169Z,11.81
2023-04-24T20:54:31.057Z,11.86
2023-04-24T20:59:35.350Z,11.74
2023-04-24T21:04:39.770Z,11.55
2023-04-24T21:09:42.595Z,11.46
2023-04-24T21:14:48.103Z,11.37
2023-04-24T21:19:51.934Z,11.54
2023-04-24T21:24:54.766Z,11.54
2023-04-24T21:29:58.862Z,11.55
2023-04-24T21:35:01.756Z,11.68
2023-04-24T21:40:05.481Z,11.34
2023-04-24T21:45:11.242Z,11.71
2023-04-24T21:50:14.039Z,11.98
2023-04-24T21:55:16.954Z,11.24
2023-04-24T22:00:21.419Z,11.68
2023-04-24T22:05:24.684Z,12.06
2023-04-24T22:10:28.348Z,11.57
2023-04-24T22:15:32.636Z,11.42
2023-04-24T22:20:35.406Z,11.91
2023-04-24T22:25:38.134Z,10.82
2023-04-24T22:30:42.210Z,11.79
2023-04-24T22:35:45.076Z,11.71
2023-04-24T22:40:47.829Z,11.89
2023-04-24T22:45:52.264Z,11.24
2023-04-24T22:50:55.950Z,11.53
2023-04-24T22:55:58.765Z,11.37
2023-04-24T23:01:02.898Z,11.26
2023-04-24T23:06:06.150Z,11.51
2023-04-24T23:11:09.157Z,11.85
2023-04-24T23:16:13.650Z,11.88
2023-04-24T23:21:17.364Z,12.00
2023-04-24T23:26:20.071Z,11.57
2023-04-24T23:31:24.210Z,11.52
2023-04-24T23:36:27.161Z,11.40
2023-04-24T23:41:30.004Z,11.35
2023-04-24T23:46:34.174Z,11.46
2023-04-24T23:51:37.097Z,11.23
2023-04-24T23:56:39.850Z,10.88
